Time;durP1;ratioP1;P1;durP2;ratioP2;P2;SDS_P1;SDS_P2;PMS_P1;PMS_P2;Temp;Humidity;BMP_temperature;BMP_pressure;BME280_temperature;BME280_humidity;BME280_pressure;Samples;Min_cycle;Max_cycle;Signal;HPM_P1;HPM_P2
2023/08/28 00:02:23;;;;;;;;;;;13.20;73.90;;;;;;4993925;28;20430;-80
2023/08/28 00:04:48;;;;;;;;;;;13.20;74.00;;;;;;5028158;28;19996;-80
2023/08/28 00:07:14;;;;;;;;;;;13.30;74.00;;;;;;5010397;28;19913;-80
2023/08/28 00:09:40;;;;;;;;;;;13.30;74.00;;;;;;5010063;28;20366;-80
2023/08/28 00:12:06;;;;;;;;;;;13.40;74.00;;;;;;5010347;28;20003;-80
2023/08/28 00:14:31;;;;;;;;;;;13.50;74.00;;;;;;4994222;28;20015;-80
2023/08/28 00:16:57;;;;;;;;;;;13.50;74.00;;;;;;5028198;28;19951;-80
2023/08/28 00:19:23;;;;;;;;;;;13.60;74.00;;;;;;5010405;28;20001;-80
2023/08/28 00:21:48;;;;;;;;;;;13.60;74.00;;;;;;5010076;28;20343;-80
2023/08/28 00:24:14;;;;;;;;;;;13.60;73.90;;;;;;4993823;28;19918;-80
2023/08/28 00:26:39;;;;;;;;;;;13.60;73.80;;;;;;5027849;28;19910;-80
2023/08/28 00:29:05;;;;;;;;;;;13.60;73.80;;;;;;5010024;28;19917;-80
2023/08/28 00:31:31;;;;;;;;;;;13.70;73.90;;;;;;5010319;28;19913;-80
2023/08/28 00:33:56;;;;;;;;;;;13.70;73.90;;;;;;5009990;28;19925;-80
2023/08/28 00:36:22;;;;;;;;;;;13.60;73.80;;;;;;5010082;28;19913;-80
2023/08/28 00:38:47;;;;;;;;;;;13.60;73.90;;;;;;5010033;28;19948;-80
2023/08/28 00:41:13;;;;;;;;;;;13.70;74.00;;;;;;5027838;28;20439;-80
2023/08/28 00:43:38;;;;;;;;;;;13.80;74.10;;;;;;5009837;28;20343;-80
2023/08/28 00:46:04;;;;;;;;;;;13.90;74.10;;;;;;5010059;28;20004;-80
2023/08/28 00:48:30;;;;;;;;;;;14.00;74.10;;;;;;5010044;28;19922;-80
2023/08/28 00:50:56;;;;;;;;;;;14.10;74.00;;;;;;5009832;28;20365;-80
2023/08/28 00:53:22;;;;;;;;;;;14.10;73.90;;;;;;4993547;28;20294;-80
2023/08/28 00:55:47;;;;;;;;;;;14.30;74.00;;;;;;5009924;28;19917;-80
2023/08/28 00:58:13;;;;;;;;;;;14.30;74.00;;;;;;5009949;28;20298;-80
2023/08/28 01:00:40;;;;;;;;;;;14.40;74.00;;;;;;4994869;28;19913;-80
2023/08/28 01:03:05;;;;;;;;;;;14.40;74.00;;;;;;5010661;28;19913;-80
2023/08/28 01:05:35;;;;;;;;;;;14.50;74.00;;;;;;4993404;28;19948;-80
2023/08/28 01:08:10;;;;;;;;;;;14.50;73.90;;;;;;5009782;28;20530;-80
2023/08/28 01:10:41;;;;;;;;;;;14.60;74.00;;;;;;5009457;28;20022;-80
2023/08/28 01:13:10;;;;;;;;;;;14.60;73.90;;;;;;5030791;28;20416;-80
2023/08/28 01:15:35;;;;;;;;;;;14.60;73.90;;;;;;5031429;28;19919;-74
2023/08/28 01:18:02;;;;;;;;;;;14.70;73.90;;;;;;5031322;28;19995;-80
2023/08/28 01:20:33;;;;;;;;;;;14.70;73.90;;;;;;5031139;28;20100;-80
2023/08/28 01:23:10;;;;;;;;;;;14.70;74.40;;;;;;5013389;28;20316;-80
2023/08/28 01:25:36;;;;;;;;;;;14.70;73.90;;;;;;5013304;28;19932;-80
2023/08/28 01:28:02;;;;;;;;;;;14.80;74.00;;;;;;5013311;28;19964;-80
2023/08/28 01:30:28;;;;;;;;;;;14.80;74.00;;;;;;5013313;28;20010;-80
2023/08/28 01:32:53;;;;;;;;;;;14.80;74.00;;;;;;4996833;28;19917;-80
2023/08/28 01:35:24;;;;;;;;;;;14.90;74.00;;;;;;5013171;28;19917;-80
2023/08/28 01:38:02;;;;;;;;;;;14.90;74.10;;;;;;5013247;28;20262;-80
2023/08/28 01:40:40;;;;;;;;;;;14.90;74.10;;;;;;5012960;28;20289;-80
2023/08/28 01:43:08;;;;;;;;;;;14.90;74.10;;;;;;5013005;28;19920;-80
2023/08/28 01:45:35;;;;;;;;;;;15.00;74.10;;;;;;5013017;28;19909;-80
2023/08/28 01:48:00;;;;;;;;;;;15.00;74.10;;;;;;5030776;28;20445;-80
2023/08/28 01:50:26;;;;;;;;;;;15.00;74.10;;;;;;5030574;28;19917;-80
2023/08/28 01:52:51;;;;;;;;;;;15.10;74.10;;;;;;5013031;28;19944;-80
2023/08/28 01:55:23;;;;;;;;;;;15.10;74.10;;;;;;4996531;28;19963;-80
2023/08/28 01:57:48;;;;;;;;;;;15.10;74.10;;;;;;5030498;28;20413;-80
2023/08/28 02:00:14;;;;;;;;;;;15.10;74.10;;;;;;4996306;28;20033;-80
2023/08/28 02:02:40;;;;;;;;;;;15.10;74.10;;;;;;5012525;28;19917;-80
2023/08/28 02:05:06;;;;;;;;;;;15.10;74.10;;;;;;5012685;28;19945;-80
2023/08/28 02:07:31;;;;;;;;;;;15.10;74.10;;;;;;4996132;28;19917;-80
2023/08/28 02:09:57;;;;;;;;;;;15.10;74.20;;;;;;4995984;28;20277;-80
2023/08/28 02:12:22;;;;;;;;;;;15.10;74.10;;;;;;5012568;28;19925;-81
2023/08/28 02:14:48;;;;;;;;;;;15.20;74.20;;;;;;4995989;28;20004;-80
2023/08/28 02:17:13;;;;;;;;;;;15.20;74.20;;;;;;5012281;28;19913;-80
2023/08/28 02:19:39;;;;;;;;;;;15.20;74.20;;;;;;5012157;28;19918;-80
2023/08/28 02:22:05;;;;;;;;;;;15.20;74.20;;;;;;5012390;28;20008;-80
2023/08/28 02:24:30;;;;;;;;;;;15.20;74.20;;;;;;4995187;28;19951;-80
2023/08/28 02:26:56;;;;;;;;;;;15.30;74.20;;;;;;5012322;28;19921;-80
2023/08/28 02:29:21;;;;;;;;;;;15.30;74.20;;;;;;4995851;28;20332;-79
2023/08/28 02:31:47;;;;;;;;;;;15.30;74.20;;;;;;5012056;28;19913;-80
2023/08/28 02:34:13;;;;;;;;;;;15.30;74.20;;;;;;4997254;28;20294;-79
2023/08/28 02:36:38;;;;;;;;;;;15.30;74.20;;;;;;5032015;28;19913;-80
2023/08/28 02:39:04;;;;;;;;;;;15.30;74.20;;;;;;5012114;28;20283;-80
2023/08/28 02:41:29;;;;;;;;;;;15.30;74.20;;;;;;4995781;28;19913;-80
2023/08/28 02:43:55;;;;;;;;;;;15.20;74.10;;;;;;4995782;28;19921;-80
2023/08/28 02:46:21;;;;;;;;;;;15.30;74.20;;;;;;5011922;28;19923;-80
2023/08/28 02:48:46;;;;;;;;;;;15.20;74.20;;;;;;5011832;28;19917;-80
2023/08/28 02:51:12;;;;;;;;;;;15.20;74.20;;;;;;4995646;28;19960;-79
2023/08/28 02:53:37;;;;;;;;;;;15.20;74.20;;;;;;5011879;28;19916;-80
2023/08/28 02:56:21;;;;;;;;;;;15.20;74.30;;;;;;4995415;28;19917;-79
2023/08/28 02:58:47;;;;;;;;;;;15.20;74.30;;;;;;5011499;28;19913;-80
2023/08/28 03:01:13;;;;;;;;;;;15.20;74.30;;;;;;5029249;28;19936;-80
2023/08/28 03:03:38;;;;;;;;;;;15.20;74.30;;;;;;5011467;28;19927;-79
2023/08/28 03:06:04;;;;;;;;;;;15.10;74.30;;;;;;4995058;28;20361;-80
2023/08/28 03:08:30;;;;;;;;;;;15.10;74.30;;;;;;5011561;28;20189;-79
2023/08/28 03:10:55;;;;;;;;;;;15.10;74.30;;;;;;5011294;28;19947;-80
2023/08/28 03:13:21;;;;;;;;;;;15.20;74.30;;;;;;5011229;28;19914;-80
2023/08/28 03:15:47;;;;;;;;;;;15.20;74.30;;;;;;5011288;28;19918;-80
2023/08/28 03:18:12;;;;;;;;;;;15.20;74.30;;;;;;5011118;28;19913;-80
2023/08/28 03:20:38;;;;;;;;;;;15.10;74.30;;;;;;5011167;28;19913;-80
2023/08/28 03:23:03;;;;;;;;;;;15.10;74.30;;;;;;5011090;28;19978;-80
2023/08/28 03:25:29;;;;;;;;;;;15.20;74.30;;;;;;4994694;28;19913;-80
2023/08/28 03:27:54;;;;;;;;;;;15.20;74.30;;;;;;5028796;28;19924;-80
2023/08/28 03:30:20;;;;;;;;;;;15.20;74.30;;;;;;5010921;28;19913;-80
2023/08/28 03:32:45;;;;;;;;;;;15.20;74.30;;;;;;5010864;28;19909;-80
2023/08/28 03:35:11;;;;;;;;;;;15.20;74.30;;;;;;4994534;28;19924;-79
2023/08/28 03:37:36;;;;;;;;;;;15.20;74.30;;;;;;4994499;28;19971;-80
2023/08/28 03:40:04;;;;;;;;;;;15.20;74.30;;;;;;5010661;28;20262;-79
2023/08/28 03:42:29;;;;;;;;;;;15.20;74.40;;;;;;5011033;28;20292;-80
2023/08/28 03:44:55;;;;;;;;;;;15.20;74.40;;;;;;4994368;28;19928;-80
2023/08/28 03:47:20;;;;;;;;;;;15.20;74.30;;;;;;4994278;28;20354;-80
2023/08/28 03:49:46;;;;;;;;;;;15.20;74.30;;;;;;5028253;28;19919;-79
2023/08/28 03:52:11;;;;;;;;;;;15.20;74.30;;;;;;5010671;28;19910;-80
2023/08/28 03:54:37;;;;;;;;;;;15.20;74.30;;;;;;5010303;28;19920;-79
2023/08/28 03:57:02;;;;;;;;;;;15.20;74.40;;;;;;5010515;28;20301;-80
2023/08/28 03:59:28;;;;;;;;;;;15.20;74.40;;;;;;5010020;28;19913;-79
2023/08/28 04:01:54;;;;;;;;;;;15.20;74.40;;;;;;4993919;28;19920;-80
2023/08/28 04:04:19;;;;;;;;;;;15.20;74.40;;;;;;4993955;28;20427;-80
2023/08/28 04:06:48;;;;;;;;;;;15.20;74.30;;;;;;4993826;28;21861;-80
2023/08/28 04:09:14;;;;;;;;;;;15.20;74.30;;;;;;4994269;28;20001;-79
2023/08/28 04:11:40;;;;;;;;;;;15.20;74.30;;;;;;5014893;28;19921;-79
2023/08/28 04:14:06;;;;;;;;;;;15.20;74.30;;;;;;5010510;28;19909;-80
2023/08/28 04:16:32;;;;;;;;;;;15.20;74.30;;;;;;5010202;28;19936;-80
2023/08/28 04:18:57;;;;;;;;;;;15.20;74.30;;;;;;4993837;28;19944;-80
2023/08/28 04:21:23;;;;;;;;;;;15.20;74.30;;;;;;4993797;28;20344;-79
2023/08/28 04:23:49;;;;;;;;;;;15.20;74.30;;;;;;5027970;28;19917;-80
2023/08/28 04:26:14;;;;;;;;;;;15.20;74.30;;;;;;5027952;28;20644;-79
2023/08/28 04:28:40;;;;;;;;;;;15.20;74.30;;;;;;5010161;28;20371;-80
2023/08/28 04:31:08;;;;;;;;;;;15.20;74.30;;;;;;4993804;28;19967;-79
2023/08/28 04:33:33;;;;;;;;;;;15.20;74.30;;;;;;5010034;28;20353;-80
2023/08/28 04:35:59;;;;;;;;;;;15.10;74.30;;;;;;5010116;28;19925;-79
2023/08/28 04:38:24;;;;;;;;;;;15.10;74.30;;;;;;5010078;28;20446;-79
2023/08/28 04:40:50;;;;;;;;;;;15.10;74.90;;;;;;4993786;28;19923;-80
2023/08/28 04:43:15;;;;;;;;;;;15.10;74.30;;;;;;4993715;28;19917;-79
2023/08/28 04:45:41;;;;;;;;;;;15.10;74.40;;;;;;5010127;28;19974;-80
2023/08/28 04:48:06;;;;;;;;;;;15.10;74.40;;;;;;5013269;28;19917;-79
2023/08/28 04:50:32;;;;;;;;;;;15.10;74.40;;;;;;4997469;28;19913;-79
2023/08/28 04:52:58;;;;;;;;;;;15.00;74.40;;;;;;5013946;28;19913;-79
2023/08/28 04:55:23;;;;;;;;;;;15.00;74.40;;;;;;4997532;28;19917;-79
2023/08/28 04:57:49;;;;;;;;;;;15.00;74.40;;;;;;4997492;28;19913;-79
2023/08/28 05:00:14;;;;;;;;;;;15.00;74.40;;;;;;5031808;28;19913;-79
2023/08/28 05:02:40;;;;;;;;;;;14.90;74.40;;;;;;4997439;28;19928;-80
2023/08/28 05:05:06;;;;;;;;;;;14.90;74.40;;;;;;5013722;28;19919;-77
2023/08/28 05:07:32;;;;;;;;;;;14.90;74.40;;;;;;5031402;28;19920;-79
2023/08/28 05:09:57;;;;;;;;;;;14.90;74.50;;;;;;5031133;28;20296;-79
2023/08/28 05:12:23;;;;;;;;;;;14.90;74.40;;;;;;5031397;28;19920;-79
2023/08/28 05:14:48;;;;;;;;;;;14.90;74.50;;;;;;5013684;28;19978;-80
2023/08/28 05:17:14;;;;;;;;;;;14.90;74.50;;;;;;5031304;28;19914;-79
2023/08/28 05:19:39;;;;;;;;;;;14.90;74.50;;;;;;5031094;28;19956;-79
2023/08/28 05:22:05;;;;;;;;;;;14.90;74.50;;;;;;5013194;28;19920;-79
2023/08/28 05:24:30;;;;;;;;;;;14.90;74.50;;;;;;5031300;28;19921;-80
2023/08/28 05:26:56;;;;;;;;;;;14.90;74.50;;;;;;5031038;28;19913;-78
2023/08/28 05:29:21;;;;;;;;;;;14.90;74.50;;;;;;5031013;28;19920;-79
2023/08/28 05:31:47;;;;;;;;;;;14.90;74.50;;;;;;5013180;28;20378;-79
2023/08/28 05:34:13;;;;;;;;;;;14.90;74.50;;;;;;5030950;28;19913;-80
2023/08/28 05:36:38;;;;;;;;;;;14.90;74.50;;;;;;5013172;28;20096;-79
2023/08/28 05:39:04;;;;;;;;;;;14.90;74.50;;;;;;5030709;28;20365;-79
2023/08/28 05:41:29;;;;;;;;;;;14.90;74.50;;;;;;5013106;28;19913;-79
2023/08/28 05:43:55;;;;;;;;;;;14.90;74.50;;;;;;5012790;28;19921;-78
2023/08/28 05:46:20;;;;;;;;;;;15.00;74.60;;;;;;5013869;28;19952;-79
2023/08/28 05:48:46;;;;;;;;;;;15.00;74.60;;;;;;5032037;28;19913;-80
2023/08/28 05:51:12;;;;;;;;;;;15.00;74.60;;;;;;5030582;28;19920;-79
2023/08/28 05:53:37;;;;;;;;;;;15.00;74.50;;;;;;5012746;28;19965;-79
2023/08/28 05:56:03;;;;;;;;;;;15.00;75.00;;;;;;5030415;28;19948;-79
2023/08/28 05:58:29;;;;;;;;;;;15.10;74.60;;;;;;5011250;28;19909;-79
2023/08/28 06:00:54;;;;;;;;;;;15.10;75.00;;;;;;5012438;28;19938;-80
2023/08/28 06:03:20;;;;;;;;;;;15.10;74.50;;;;;;5012374;28;20287;-80
2023/08/28 06:05:45;;;;;;;;;;;15.10;74.50;;;;;;5012784;28;19936;-80
2023/08/28 06:08:11;;;;;;;;;;;15.10;74.50;;;;;;5030123;28;20374;-80
2023/08/28 06:10:40;;;;;;;;;;;15.20;74.50;;;;;;5029794;28;19924;-80
2023/08/28 06:13:06;;;;;;;;;;;15.20;74.50;;;;;;5012381;28;19912;-79
2023/08/28 06:15:31;;;;;;;;;;;15.20;74.50;;;;;;5030108;28;19921;-80
2023/08/28 06:17:57;;;;;;;;;;;15.20;74.50;;;;;;5012282;28;19909;-79
2023/08/28 06:20:22;;;;;;;;;;;15.30;74.60;;;;;;5029990;28;19917;-80
2023/08/28 06:22:48;;;;;;;;;;;15.30;74.60;;;;;;5029885;28;20008;-80
2023/08/28 06:25:14;;;;;;;;;;;15.40;74.60;;;;;;5012086;28;20302;-80
2023/08/28 06:27:39;;;;;;;;;;;15.40;74.60;;;;;;4995765;28;19918;-80
2023/08/28 06:30:06;;;;;;;;;;;15.50;74.50;;;;;;5029703;28;19910;-79
2023/08/28 06:32:31;;;;;;;;;;;15.50;74.50;;;;;;5029672;28;20361;-80
2023/08/28 06:34:57;;;;;;;;;;;15.50;74.50;;;;;;4995844;28;20012;-80
2023/08/28 06:37:24;;;;;;;;;;;15.60;74.50;;;;;;5029550;28;19971;-79
2023/08/28 06:39:51;;;;;;;;;;;15.60;74.40;;;;;;5029331;28;19920;-79
2023/08/28 06:42:17;;;;;;;;;;;15.70;74.50;;;;;;5011831;28;19963;-78
2023/08/28 06:44:42;;;;;;;;;;;15.70;74.40;;;;;;5029630;28;19921;-79
2023/08/28 06:47:08;;;;;;;;;;;15.70;74.40;;;;;;5011638;28;20302;-79
2023/08/28 06:49:33;;;;;;;;;;;15.70;74.40;;;;;;5011729;28;19982;-79
2023/08/28 06:51:59;;;;;;;;;;;15.70;74.40;;;;;;4995240;28;19928;-79
2023/08/28 06:54:25;;;;;;;;;;;15.80;74.50;;;;;;5029254;28;20402;-79
2023/08/28 06:56:50;;;;;;;;;;;15.70;74.50;;;;;;4994836;28;20420;-78
2023/08/28 06:59:16;;;;;;;;;;;15.80;74.50;;;;;;4995053;28;19919;-77
2023/08/28 07:01:41;;;;;;;;;;;15.90;74.50;;;;;;5028863;28;20039;-79
2023/08/28 07:04:07;;;;;;;;;;;15.90;74.50;;;;;;5011369;28;20327;-79
2023/08/28 07:06:33;;;;;;;;;;;15.90;74.50;;;;;;5011283;28;19913;-80
2023/08/28 07:08:59;;;;;;;;;;;16.00;74.60;;;;;;5028630;28;20686;-80
2023/08/28 07:11:25;;;;;;;;;;;16.10;74.50;;;;;;5028741;28;19921;-79
2023/08/28 07:13:50;;;;;;;;;;;16.10;74.50;;;;;;5011212;28;20020;-79
2023/08/28 07:16:16;;;;;;;;;;;16.20;74.40;;;;;;5029047;28;19913;-79
2023/08/28 07:18:43;;;;;;;;;;;16.30;74.50;;;;;;5011910;28;19913;-80
2023/08/28 07:21:09;;;;;;;;;;;16.30;74.50;;;;;;4994758;28;20284;-79
2023/08/28 07:23:36;;;;;;;;;;;16.40;74.60;;;;;;5037171;28;19932;-80
2023/08/28 07:26:02;;;;;;;;;;;16.50;74.60;;;;;;5011181;28;19931;-80
2023/08/28 07:28:29;;;;;;;;;;;16.70;74.60;;;;;;5029180;28;19909;-80
2023/08/28 07:31:02;;;;;;;;;;;16.90;74.60;;;;;;5028561;28;19935;-79
2023/08/28 07:33:27;;;;;;;;;;;17.00;74.50;;;;;;5010921;28;20388;-80
2023/08/28 07:35:53;;;;;;;;;;;17.10;74.40;;;;;;5028535;28;19909;-79
2023/08/28 07:38:19;;;;;;;;;;;17.10;74.40;;;;;;4994334;28;19975;-80
2023/08/28 07:40:48;;;;;;;;;;;17.20;74.50;;;;;;5010470;28;19966;-79
2023/08/28 07:43:13;;;;;;;;;;;17.20;74.40;;;;;;5010527;28;20391;-71
2023/08/28 07:45:39;;;;;;;;;;;17.20;74.50;;;;;;5028311;28;20000;-79
2023/08/28 07:48:05;;;;;;;;;;;17.20;74.50;;;;;;5010538;28;19910;-80
2023/08/28 07:50:30;;;;;;;;;;;17.20;74.50;;;;;;5010516;28;19928;-80
2023/08/28 07:52:57;;;;;;;;;;;17.30;74.60;;;;;;5010478;28;19913;-80
2023/08/28 07:55:22;;;;;;;;;;;17.40;74.60;;;;;;5010269;28;19913;-79
2023/08/28 07:57:48;;;;;;;;;;;17.50;74.50;;;;;;5010304;28;20397;-80
2023/08/28 08:00:14;;;;;;;;;;;17.60;74.60;;;;;;5027930;28;20316;-80
2023/08/28 08:02:40;;;;;;;;;;;17.70;74.70;;;;;;5010363;28;19920;-80
2023/08/28 08:05:06;;;;;;;;;;;17.80;74.70;;;;;;4994126;28;20365;-80
2023/08/28 08:07:32;;;;;;;;;;;17.90;74.60;;;;;;5027741;28;20277;-80
2023/08/28 08:09:58;;;;;;;;;;;18.00;74.50;;;;;;5010161;28;19951;-79
2023/08/28 08:12:23;;;;;;;;;;;18.00;74.50;;;;;;5028199;28;19914;-79
2023/08/28 08:14:49;;;;;;;;;;;18.00;74.50;;;;;;5010208;28;19913;-80
2023/08/28 08:17:14;;;;;;;;;;;18.00;74.50;;;;;;5010156;28;20015;-80
2023/08/28 08:19:40;;;;;;;;;;;18.10;74.60;;;;;;5027892;28;19928;-80
2023/08/28 08:22:06;;;;;;;;;;;18.10;74.40;;;;;;5026972;28;20022;-80
2023/08/28 08:24:32;;;;;;;;;;;18.20;74.50;;;;;;5027796;28;20361;-81
2023/08/28 08:26:57;;;;;;;;;;;18.40;74.70;;;;;;5027813;28;20649;-80
2023/08/28 08:29:24;;;;;;;;;;;18.70;74.60;;;;;;5027548;28;19913;-80
2023/08/28 08:31:51;;;;;;;;;;;18.80;74.20;;;;;;5009582;28;20280;-80
2023/08/28 08:34:18;;;;;;;;;;;18.70;74.20;;;;;;5027593;28;20408;-79
2023/08/28 08:36:43;;;;;;;;;;;18.70;74.30;;;;;;5010223;28;19913;-79
2023/08/28 08:39:09;;;;;;;;;;;18.90;74.70;;;;;;5027227;28;19983;-79
2023/08/28 08:41:35;;;;;;;;;;;19.10;74.70;;;;;;4993342;28;19913;-80
2023/08/28 08:44:00;;;;;;;;;;;19.10;74.40;;;;;;5009438;28;19922;-69
2023/08/28 08:46:26;;;;;;;;;;;19.20;74.50;;;;;;5029131;28;19917;-78
2023/08/28 08:48:54;;;;;;;;;;;19.20;74.50;;;;;;5028990;28;19909;-78
2023/08/28 08:51:20;;;;;;;;;;;19.20;74.40;;;;;;5029244;28;19915;-78
2023/08/28 08:53:45;;;;;;;;;;;19.10;74.30;;;;;;5029143;28;19909;-78
2023/08/28 08:56:15;;;;;;;;;;;19.10;74.30;;;;;;5028775;28;20453;-78
2023/08/28 08:58:41;;;;;;;;;;;19.00;74.20;;;;;;5029998;28;20341;-79
2023/08/28 09:01:07;;;;;;;;;;;19.00;74.30;;;;;;5029181;28;19914;-79
2023/08/28 09:03:32;;;;;;;;;;;19.00;74.20;;;;;;5026135;28;20381;-79
2023/08/28 09:05:59;;;;;;;;;;;18.90;74.30;;;;;;5041701;28;19957;-79
2023/08/28 09:08:25;;;;;;;;;;;19.00;74.70;;;;;;5026618;28;19936;-79
2023/08/28 09:10:50;;;;;;;;;;;19.10;74.80;;;;;;5026601;28;20408;-74
2023/08/28 09:13:16;;;;;;;;;;;19.40;75.20;;;;;;5025085;28;19909;-78
2023/08/28 09:15:42;;;;;;;;;;;19.70;75.50;;;;;;5007023;28;20350;-77
2023/08/28 09:18:07;;;;;;;;;;;20.20;75.30;;;;;;5027266;28;20008;-78
2023/08/28 09:20:34;;;;;;;;;;;20.50;74.70;;;;;;5017000;28;19913;-77
2023/08/28 09:23:00;;;;;;;;;;;20.30;74.20;;;;;;5011443;28;19917;-78
2023/08/28 09:25:26;;;;;;;;;;;20.10;74.00;;;;;;5029095;28;19935;-79
2023/08/28 09:27:53;;;;;;;;;;;19.90;74.00;;;;;;5027882;28;19971;-78
2023/08/28 09:30:29;;;;;;;;;;;19.60;74.00;;;;;;5027636;28;20343;-79
2023/08/28 09:32:56;;;;;;;;;;;19.40;74.50;;;;;;5028834;28;19920;-78
2023/08/28 09:35:22;;;;;;;;;;;19.70;75.60;;;;;;5029719;28;19999;-78
2023/08/28 09:37:57;;;;;;;;;;;20.80;77.20;;;;;;5032377;28;19913;-79
2023/08/28 09:40:27;;;;;;;;;;;22.10;77.20;;;;;;5014430;28;19920;-78
2023/08/28 09:42:53;;;;;;;;;;;23.30;76.40;;;;;;5032136;28;19913;-78
2023/08/28 09:45:19;;;;;;;;;;;24.10;75.40;;;;;;5032066;28;20381;-78
2023/08/28 09:47:44;;;;;;;;;;;24.60;74.80;;;;;;5032100;28;19913;-79
2023/08/28 09:50:10;;;;;;;;;;;25.00;74.60;;;;;;4998146;28;19996;-79
2023/08/28 09:52:36;;;;;;;;;;;24.90;73.90;;;;;;5032235;28;19919;-78
2023/08/28 09:55:04;;;;;;;;;;;24.80;74.20;;;;;;5014508;28;19948;-80
2023/08/28 09:57:31;;;;;;;;;;;25.00;74.90;;;;;;5014209;28;19924;-79
2023/08/28 09:59:56;;;;;;;;;;;25.70;75.50;;;;;;5032212;28;19913;-78
2023/08/28 10:02:22;;;;;;;;;;;26.20;75.30;;;;;;5031934;28;20476;-78
2023/08/28 10:04:52;;;;;;;;;;;26.40;75.20;;;;;;5013620;28;19992;-78
2023/08/28 10:07:21;;;;;;;;;;;27.00;76.00;;;;;;5014499;28;19919;-76
2023/08/28 10:09:47;;;;;;;;;;;27.90;76.00;;;;;;5013230;28;20017;-79
2023/08/28 10:12:13;;;;;;;;;;;28.10;75.30;;;;;;5031311;28;19914;-77
2023/08/28 10:14:39;;;;;;;;;;;28.20;75.70;;;;;;5031617;28;19917;-78
2023/08/28 10:17:05;;;;;;;;;;;28.90;76.50;;;;;;5031045;28;20370;-77
2023/08/28 10:19:38;;;;;;;;;;;29.80;76.90;;;;;;5030748;28;20578;-77
2023/08/28 10:22:06;;;;;;;;;;;30.10;75.60;;;;;;5030934;28;19909;-78
2023/08/28 10:24:34;;;;;;;;;;;29.70;75.10;;;;;;5030630;28;19917;-79
2023/08/28 10:27:00;;;;;;;;;;;29.80;75.90;;;;;;5031101;28;19972;-76
2023/08/28 10:29:26;;;;;;;;;;;30.00;75.60;;;;;;5027169;28;20249;-76
2023/08/28 10:31:52;;;;;;;;;;;29.90;75.30;;;;;;5030910;28;19920;-78
2023/08/28 10:34:18;;;;;;;;;;;29.30;75.30;;;;;;5030955;28;19920;-77
2023/08/28 10:36:46;;;;;;;;;;;29.10;76.10;;;;;;4998841;28;19913;-77
2023/08/28 10:39:11;;;;;;;;;;;29.10;76.50;;;;;;5031331;28;20409;-79
2023/08/28 10:41:38;;;;;;;;;;;29.10;76.50;;;;;;5031632;28;19955;-79
2023/08/28 10:44:05;;;;;;;;;;;29.00;76.20;;;;;;5013238;28;19917;-80
2023/08/28 10:46:30;;;;;;;;;;;28.50;75.60;;;;;;5013223;28;19917;-76
2023/08/28 10:48:57;;;;;;;;;;;27.90;75.10;;;;;;5013498;28;20008;-76
2023/08/28 10:51:29;;;;;;;;;;;27.10;75.30;;;;;;5031297;28;19913;-77
2023/08/28 10:53:58;;;;;;;;;;;26.60;75.80;;;;;;5030611;28;19913;-78
2023/08/28 10:56:23;;;;;;;;;;;26.70;77.20;;;;;;5031075;28;19917;-79
2023/08/28 10:58:49;;;;;;;;;;;27.00;76.90;;;;;;5030625;28;20358;-83
2023/08/28 11:01:17;;;;;;;;;;;27.10;76.70;;;;;;5013231;28;19909;-82
2023/08/28 11:03:56;;;;;;;;;;;27.00;76.50;;;;;;5013364;28;19963;-83
2023/08/28 11:06:34;;;;;;;;;;;26.80;75.90;;;;;;5014212;28;20471;-83
2023/08/28 11:09:19;;;;;;;;;;;26.40;75.70;;;;;;5031641;28;20303;-83
2023/08/28 11:11:45;;;;;;;;;;;26.10;75.60;;;;;;5011721;28;20381;-80
2023/08/28 11:14:13;;;;;;;;;;;25.90;75.80;;;;;;5012923;28;19913;-83
2023/08/28 11:16:41;;;;;;;;;;;25.70;75.90;;;;;;4993123;28;20369;-80
2023/08/28 11:19:07;;;;;;;;;;;25.40;75.90;;;;;;4993815;28;19917;-79
2023/08/28 11:21:40;;;;;;;;;;;25.30;76.00;;;;;;4978794;28;19914;-80
2023/08/28 11:24:25;;;;;;;;;;;25.40;76.60;;;;;;4993608;28;19966;-79
2023/08/28 11:26:52;;;;;;;;;;;26.00;77.30;;;;;;5011121;28;19973;-82
2023/08/28 11:29:27;;;;;;;;;;;26.70;77.10;;;;;;4996134;28;19921;-80
2023/08/28 11:31:53;;;;;;;;;;;27.20;77.20;;;;;;4994552;28;19910;-81
2023/08/28 11:34:18;;;;;;;;;;;28.00;77.50;;;;;;5006724;28;19987;-83
2023/08/28 11:36:45;;;;;;;;;;;29.10;77.80;;;;;;4995306;28;19913;-83
2023/08/28 11:39:22;;;;;;;;;;;29.60;76.80;;;;;;5010643;28;19909;-84
2023/08/28 11:41:47;;;;;;;;;;;29.50;76.00;;;;;;5010724;28;20009;-82
2023/08/28 11:44:14;;;;;;;;;;;29.40;76.10;;;;;;4976487;28;19924;-81
2023/08/28 11:46:39;;;;;;;;;;;29.60;76.30;;;;;;5010450;28;19916;-81
2023/08/28 11:49:08;;;;;;;;;;;29.50;75.80;;;;;;4992203;28;19909;-80
2023/08/28 11:51:36;;;;;;;;;;;29.30;75.50;;;;;;5010368;28;19909;-81
2023/08/28 11:54:03;;;;;;;;;;;28.90;75.60;;;;;;5010546;28;19932;-81
2023/08/28 11:56:32;;;;;;;;;;;28.40;75.50;;;;;;4992727;28;19909;-83
2023/08/28 11:58:58;;;;;;;;;;;27.90;75.40;;;;;;5010320;28;19945;-77
2023/08/28 12:01:24;;;;;;;;;;;27.20;74.90;;;;;;5009923;28;19916;-76
2023/08/28 12:03:55;;;;;;;;;;;26.70;75.00;;;;;;5009140;28;19925;-78
2023/08/28 12:06:21;;;;;;;;;;;26.50;75.70;;;;;;5009109;28;19917;-77
2023/08/28 12:08:47;;;;;;;;;;;26.40;75.80;;;;;;4991306;28;19925;-77
2023/08/28 12:11:13;;;;;;;;;;;26.30;75.60;;;;;;5026899;28;19917;-77
2023/08/28 12:13:39;;;;;;;;;;;26.20;76.30;;;;;;5028878;28;19967;-74
2023/08/28 12:16:05;;;;;;;;;;;26.10;75.80;;;;;;5028661;28;19986;-78
2023/08/28 12:18:41;;;;;;;;;;;26.20;76.10;;;;;;5028820;28;19917;-78
2023/08/28 12:21:07;;;;;;;;;;;26.40;76.10;;;;;;5029013;28;19919;-78
2023/08/28 12:23:32;;;;;;;;;;;26.30;75.50;;;;;;5029179;28;20004;-79
2023/08/28 12:25:58;;;;;;;;;;;26.30;75.40;;;;;;5029515;28;20012;-79
2023/08/28 12:28:24;;;;;;;;;;;26.00;75.00;;;;;;5028687;28;20047;-76
2023/08/28 12:30:53;;;;;;;;;;;25.70;74.80;;;;;;5031567;28;19909;-79
2023/08/28 12:33:20;;;;;;;;;;;25.40;74.80;;;;;;5028818;28;20018;-81
2023/08/28 12:35:45;;;;;;;;;;;25.00;74.80;;;;;;5028889;28;19921;-78
2023/08/28 12:38:11;;;;;;;;;;;24.70;74.90;;;;;;5011555;28;19940;-77
2023/08/28 12:40:37;;;;;;;;;;;24.40;75.10;;;;;;5044638;28;19926;-80
2023/08/28 12:43:10;;;;;;;;;;;24.30;75.50;;;;;;5011612;28;19944;-73
2023/08/28 12:45:35;;;;;;;;;;;24.40;75.80;;;;;;5033107;28;19921;-80
2023/08/28 12:48:02;;;;;;;;;;;24.80;76.60;;;;;;5010855;28;19943;-78
2023/08/28 12:50:28;;;;;;;;;;;25.60;77.00;;;;;;5022476;28;20032;-77
2023/08/28 12:52:53;;;;;;;;;;;26.10;76.40;;;;;;5028517;28;20011;-78
2023/08/28 12:55:19;;;;;;;;;;;26.30;75.80;;;;;;5027957;28;19914;-78
2023/08/28 12:57:44;;;;;;;;;;;26.30;75.40;;;;;;5007658;28;19941;-79
2023/08/28 13:00:11;;;;;;;;;;;26.40;75.60;;;;;;5010450;28;19917;-78
2023/08/28 13:02:37;;;;;;;;;;;26.60;75.60;;;;;;5029117;28;20003;-78
2023/08/28 13:05:06;;;;;;;;;;;26.70;75.60;;;;;;5019277;28;20832;-77
2023/08/28 13:07:32;;;;;;;;;;;26.70;75.40;;;;;;5028720;28;19913;-77
2023/08/28 13:09:57;;;;;;;;;;;26.70;75.20;;;;;;5013323;28;19928;-77
2023/08/28 13:12:23;;;;;;;;;;;26.40;74.70;;;;;;5031403;28;19917;-77
2023/08/28 13:14:48;;;;;;;;;;;26.10;74.60;;;;;;5031834;28;19957;-77
2023/08/28 13:17:14;;;;;;;;;;;25.70;74.70;;;;;;5031794;28;19921;-77
2023/08/28 13:19:39;;;;;;;;;;;25.50;74.90;;;;;;5031455;28;20129;-77
2023/08/28 13:22:05;;;;;;;;;;;25.20;74.90;;;;;;5036937;28;19913;-77
2023/08/28 13:24:31;;;;;;;;;;;25.30;75.70;;;;;;5031185;28;19950;-81
2023/08/28 13:26:57;;;;;;;;;;;25.70;76.30;;;;;;4997441;28;19914;-77
2023/08/28 13:29:22;;;;;;;;;;;26.10;76.00;;;;;;5034672;28;19952;-77
2023/08/28 13:31:48;;;;;;;;;;;26.20;75.30;;;;;;5031797;28;20011;-77
2023/08/28 13:34:13;;;;;;;;;;;26.20;75.30;;;;;;5031191;28;19928;-76
2023/08/28 13:36:41;;;;;;;;;;;26.40;75.50;;;;;;5013547;28;19917;-77
2023/08/28 13:39:07;;;;;;;;;;;26.30;75.10;;;;;;5046906;28;20741;-77
2023/08/28 13:41:32;;;;;;;;;;;26.00;74.50;;;;;;5047035;28;19949;-77
2023/08/28 13:43:58;;;;;;;;;;;25.70;74.60;;;;;;5028703;28;19970;-74
2023/08/28 13:46:24;;;;;;;;;;;25.40;74.60;;;;;;5030794;28;19952;-77
2023/08/28 13:48:50;;;;;;;;;;;25.10;74.70;;;;;;5031276;28;20410;-71
2023/08/28 13:51:15;;;;;;;;;;;25.10;75.10;;;;;;5030858;28;19976;-77
2023/08/28 13:53:41;;;;;;;;;;;25.10;75.30;;;;;;5009433;28;20506;-78
2023/08/28 13:56:07;;;;;;;;;;;25.10;75.20;;;;;;5032531;28;19909;-78
2023/08/28 13:58:32;;;;;;;;;;;25.30;75.20;;;;;;5025816;28;19966;-78
2023/08/28 14:00:58;;;;;;;;;;;25.30;75.00;;;;;;5031052;28;20362;-74
2023/08/28 14:03:27;;;;;;;;;;;25.30;74.90;;;;;;5030843;28;20004;-76
2023/08/28 14:05:54;;;;;;;;;;;25.20;74.90;;;;;;5030728;28;19916;-74
2023/08/28 14:08:19;;;;;;;;;;;25.30;75.00;;;;;;5030430;28;19967;-75
2023/08/28 14:10:45;;;;;;;;;;;25.20;74.90;;;;;;5030377;28;19943;-77
2023/08/28 14:13:11;;;;;;;;;;;25.10;74.80;;;;;;5040176;28;19928;-77